createdAt,value
2018-06-09T00:00:25.961Z,0
2018-06-09T00:01:35.926Z,0
2018-06-09T00:02:45.783Z,0
2018-06-09T00:03:55.496Z,0
2018-06-09T00:05:05.463Z,0
2018-06-09T00:06:15.429Z,0
2018-06-09T00:07:25.388Z,0
2018-06-09T00:08:35.382Z,0
2018-06-09T00:09:45.158Z,0
2018-06-09T00:10:55.136Z,0
2018-06-09T00:12:04.844Z,0
2018-06-09T00:13:14.826Z,0
2018-06-09T00:14:24.791Z,0
2018-06-09T00:15:34.500Z,0
2018-06-09T00:16:44.471Z,0
2018-06-09T00:17:54.440Z,0
2018-06-09T00:19:04.164Z,0
2018-06-09T00:20:14.204Z,0
2018-06-09T00:21:24.171Z,0
2018-06-09T00:22:33.884Z,0
2018-06-09T00:23:43.870Z,0
2018-06-09T00:24:53.833Z,0
2018-06-09T00:26:03.797Z,0
2018-06-09T00:27:13.769Z,0
2018-06-09T00:28:23.735Z,0
2018-06-09T00:29:33.721Z,0
2018-06-09T00:30:43.684Z,0
2018-06-09T00:31:53.853Z,0
2018-06-09T00:33:03.569Z,0
2018-06-09T00:34:13.528Z,0
2018-06-09T00:35:23.237Z,0
2018-06-09T00:36:33.213Z,0
2018-06-09T00:37:43.190Z,0
2018-06-09T00:38:53.162Z,0
2018-06-09T00:40:02.876Z,0
2018-06-09T00:41:12.590Z,0
2018-06-09T00:42:21.782Z,0
2018-06-09T00:43:31.756Z,0
2018-06-09T00:44:41.721Z,0
2018-06-09T00:45:51.429Z,0
2018-06-09T00:47:01.400Z,0
2018-06-09T00:48:11.378Z,0
2018-06-09T00:49:21.364Z,0
2018-06-09T00:50:31.083Z,0
2018-06-09T00:51:41.049Z,0
2018-06-09T00:52:50.763Z,0
2018-06-09T00:54:00.725Z,0
2018-06-09T00:55:10.440Z,0
2018-06-09T00:56:20.142Z,0
2018-06-09T00:57:30.112Z,0
2018-06-09T00:58:40.095Z,0
2018-06-09T00:59:49.548Z,0
2018-06-09T01:00:59.533Z,0
2018-06-09T01:02:09.522Z,0
2018-06-09T01:03:19.498Z,0
2018-06-09T01:04:28.949Z,0
2018-06-09T01:05:38.694Z,0
2018-06-09T01:06:48.664Z,0
2018-06-09T01:07:58.629Z,0
2018-06-09T01:09:08.610Z,0
2018-06-09T01:10:18.592Z,0
2018-06-09T01:11:28.315Z,0
2018-06-09T01:12:38.028Z,0
2018-06-09T01:13:48.035Z,0
2018-06-09T01:14:58.009Z,0
2018-06-09T01:16:07.718Z,0
2018-06-09T01:17:17.679Z,0
2018-06-09T01:18:27.454Z,0
2018-06-09T01:19:37.425Z,0
2018-06-09T01:20:47.394Z,0
2018-06-09T01:21:57.393Z,0
2018-06-09T01:23:07.366Z,0
2018-06-09T01:24:17.083Z,0
2018-06-09T01:25:27.057Z,0
2018-06-09T01:26:37.037Z,0
2018-06-09T01:27:47.005Z,0
2018-06-09T01:28:56.971Z,0
2018-06-09T01:30:06.704Z,0
2018-06-09T01:31:16.668Z,0
2018-06-09T01:32:26.637Z,0
2018-06-09T01:33:36.091Z,0
2018-06-09T01:34:46.072Z,0
2018-06-09T01:35:56.037Z,0
2018-06-09T01:37:06.013Z,0
2018-06-09T01:38:15.979Z,0
2018-06-09T01:39:25.949Z,0
2018-06-09T01:40:35.914Z,0
2018-06-09T01:41:45.867Z,0
2018-06-09T01:42:55.336Z,0
2018-06-09T01:44:05.301Z,0
2018-06-09T01:45:15.027Z,0
2018-06-09T01:46:24.993Z,0
2018-06-09T01:47:34.962Z,0
2018-06-09T01:48:44.665Z,0
2018-06-09T01:49:54.633Z,0
2018-06-09T01:51:04.360Z,0
2018-06-09T01:52:14.332Z,0
2018-06-09T01:53:24.043Z,0
2018-06-09T01:54:34.002Z,0
2018-06-09T01:55:43.968Z,0
2018-06-09T01:56:53.950Z,0
2018-06-09T01:58:03.919Z,0
2018-06-09T01:59:13.631Z,0
2018-06-09T02:00:23.598Z,0
2018-06-09T02:01:33.560Z,0
2018-06-09T02:02:43.512Z,0
2018-06-09T02:03:53.216Z,0
2018-06-09T02:05:02.960Z,0
2018-06-09T02:06:12.947Z,0
2018-06-09T02:07:22.661Z,0
2018-06-09T02:08:32.619Z,0
2018-06-09T02:09:42.333Z,0
2018-06-09T02:10:52.307Z,0
2018-06-09T02:12:02.269Z,0
2018-06-09T02:13:11.979Z,0
2018-06-09T02:14:21.958Z,0
2018-06-09T02:15:31.670Z,0
2018-06-09T02:16:41.382Z,0
2018-06-09T02:17:51.344Z,0
2018-06-09T02:19:01.306Z,0
2018-06-09T02:20:11.023Z,0
2018-06-09T02:21:20.736Z,0
2018-06-09T02:22:30.456Z,0
2018-06-09T02:23:40.437Z,0
2018-06-09T02:24:50.404Z,0
2018-06-09T02:26:00.381Z,0
2018-06-09T02:27:10.353Z,0
2018-06-09T02:28:20.332Z,0
2018-06-09T02:29:30.051Z,0
2018-06-09T02:30:39.771Z,5
2018-06-09T02:31:49.548Z,5
2018-06-09T02:32:59.561Z,5
2018-06-09T02:34:09.540Z,5
2018-06-09T02:35:19.519Z,5
2018-06-09T02:36:29.495Z,5
2018-06-09T02:37:39.459Z,5
2018-06-09T02:38:49.169Z,5
2018-06-09T02:39:59.355Z,5
2018-06-09T02:41:09.345Z,5
2018-06-09T02:42:19.058Z,5
2018-06-09T02:43:29.041Z,5
2018-06-09T02:44:39.014Z,10
2018-06-09T02:45:48.988Z,10
2018-06-09T02:46:58.962Z,10
2018-06-09T02:48:08.934Z,10
2018-06-09T02:49:18.658Z,10
2018-06-09T02:50:28.629Z,15
2018-06-09T02:51:38.596Z,15
2018-06-09T02:52:48.562Z,15
2018-06-09T02:53:58.293Z,15
2018-06-09T02:55:08.304Z,15
2018-06-09T02:56:18.288Z,20
2018-06-09T02:57:28.023Z,20
2018-06-09T02:58:37.737Z,20
2018-06-09T02:59:47.739Z,25
2018-06-09T03:00:57.451Z,25
2018-06-09T03:02:07.430Z,30
2018-06-09T03:03:17.398Z,30
2018-06-09T03:04:27.366Z,30
2018-06-09T03:05:37.337Z,30
2018-06-09T03:06:47.313Z,35
2018-06-09T03:07:57.340Z,35
2018-06-09T03:09:07.335Z,40
2018-06-09T03:10:17.329Z,40
2018-06-09T03:11:27.289Z,45
2018-06-09T03:12:36.774Z,45
2018-06-09T03:13:46.749Z,45
2018-06-09T03:14:56.724Z,50
2018-06-09T03:16:06.722Z,50
2018-06-09T03:17:16.449Z,50
2018-06-09T03:18:26.264Z,55
2018-06-09T03:19:36.244Z,55
2018-06-09T03:20:46.218Z,60
2018-06-09T03:21:56.185Z,60
2018-06-09T03:23:06.150Z,65
2018-06-09T03:24:15.851Z,65
2018-06-09T03:25:25.842Z,70
2018-06-09T03:26:35.829Z,70
2018-06-09T03:27:45.533Z,75
2018-06-09T03:28:55.243Z,80
2018-06-09T03:30:05.213Z,80
2018-06-09T03:31:14.927Z,85
2018-06-09T03:32:24.399Z,85
2018-06-09T03:33:34.368Z,90
2018-06-09T03:34:44.068Z,90
2018-06-09T03:35:53.776Z,95
2018-06-09T03:37:03.740Z,95
2018-06-09T03:38:13.454Z,100
2018-06-09T03:39:23.436Z,100
2018-06-09T03:40:33.461Z,105
2018-06-09T03:41:43.426Z,105
2018-06-09T03:42:53.388Z,105
2018-06-09T03:44:03.362Z,110
2018-06-09T03:45:13.335Z,110
2018-06-09T03:46:23.302Z,110
2018-06-09T03:47:33.012Z,115
2018-06-09T03:48:42.978Z,115
2018-06-09T03:49:52.945Z,120
2018-06-09T03:51:02.911Z,120
2018-06-09T03:52:12.882Z,120
2018-06-09T03:53:22.860Z,125
2018-06-09T03:54:32.585Z,125
2018-06-09T03:55:42.604Z,125
2018-06-09T03:56:52.595Z,130
2018-06-09T03:58:02.549Z,130
2018-06-09T03:59:12.263Z,135
2018-06-09T04:00:21.982Z,135
2018-06-09T04:01:31.952Z,140
2018-06-09T04:02:41.703Z,140
2018-06-09T04:03:51.684Z,140
2018-06-09T04:05:01.400Z,145
2018-06-09T04:06:11.125Z,145
2018-06-09T04:07:21.112Z,150
2018-06-09T04:08:30.824Z,150
2018-06-09T04:09:40.791Z,155
2018-06-09T04:10:50.498Z,155
2018-06-09T04:12:00.468Z,160
2018-06-09T04:13:10.172Z,165
2018-06-09T04:14:20.139Z,165
2018-06-09T04:15:30.105Z,170
2018-06-09T04:16:39.822Z,170
2018-06-09T04:17:49.805Z,170
2018-06-09T04:18:59.778Z,170
2018-06-09T04:20:09.743Z,175
2018-06-09T04:21:19.702Z,175
2018-06-09T04:22:29.404Z,180
2018-06-09T04:23:39.366Z,180
2018-06-09T04:24:49.339Z,180
2018-06-09T04:25:59.313Z,185
2018-06-09T04:27:08.772Z,185
2018-06-09T04:28:18.543Z,185
2018-06-09T04:29:28.517Z,190
2018-06-09T04:30:37.977Z,190
2018-06-09T04:31:47.689Z,195
2018-06-09T04:32:57.407Z,195
2018-06-09T04:34:07.197Z,195
2018-06-09T04:35:17.164Z,200
2018-06-09T04:36:27.149Z,200
2018-06-09T04:37:36.596Z,200
2018-06-09T04:38:46.564Z,200
2018-06-09T04:39:56.469Z,205
2018-06-09T04:41:06.446Z,205
2018-06-09T04:42:16.426Z,205
2018-06-09T04:43:26.390Z,205
2018-06-09T04:44:36.097Z,205
2018-06-09T04:45:46.064Z,210
2018-06-09T04:46:55.982Z,210
2018-06-09T04:48:05.946Z,210
2018-06-09T04:49:15.660Z,215
2018-06-09T04:50:25.639Z,215
2018-06-09T04:51:35.355Z,215
2018-06-09T04:52:45.335Z,220
2018-06-09T04:53:55.305Z,220
2018-06-09T04:55:05.017Z,220
2018-06-09T04:56:14.992Z,220
2018-06-09T04:57:24.963Z,230
2018-06-09T04:58:35.151Z,225
2018-06-09T04:59:45.132Z,230
2018-06-09T05:00:54.865Z,225
2018-06-09T05:02:04.839Z,225
2018-06-09T05:03:14.804Z,230
2018-06-09T05:04:24.507Z,230
2018-06-09T05:05:34.229Z,230
2018-06-09T05:06:44.192Z,225
2018-06-09T05:07:54.184Z,235
2018-06-09T05:09:03.632Z,235
2018-06-09T05:10:13.343Z,240
2018-06-09T05:11:23.321Z,240
2018-06-09T05:12:33.292Z,240
2018-06-09T05:13:43.265Z,240
2018-06-09T05:14:52.713Z,245
2018-06-09T05:16:02.686Z,245
2018-06-09T05:17:12.647Z,245
2018-06-09T05:18:22.754Z,250
2018-06-09T05:19:32.740Z,250
2018-06-09T05:20:42.452Z,250
2018-06-09T05:21:52.433Z,250
2018-06-09T05:23:02.408Z,250
2018-06-09T05:24:12.380Z,255
2018-06-09T05:25:22.365Z,260
2018-06-09T05:26:32.451Z,260
2018-06-09T05:27:42.162Z,265
2018-06-09T05:28:52.131Z,265
2018-06-09T05:30:02.107Z,265
2018-06-09T05:31:12.084Z,270
2018-06-09T05:32:22.076Z,270
2018-06-09T05:33:32.046Z,270
2018-06-09T05:34:41.530Z,275
2018-06-09T05:35:51.515Z,275
2018-06-09T05:37:01.482Z,275
2018-06-09T05:38:11.485Z,275
2018-06-09T05:39:21.200Z,280
2018-06-09T05:40:31.170Z,280
2018-06-09T05:41:41.153Z,280
2018-06-09T05:42:51.120Z,285
2018-06-09T05:44:00.824Z,285
2018-06-09T05:45:10.796Z,285
2018-06-09T05:46:20.271Z,290
2018-06-09T05:47:30.239Z,290
2018-06-09T05:48:39.958Z,295
2018-06-09T05:49:49.930Z,295
2018-06-09T05:50:59.891Z,295
2018-06-09T05:52:09.857Z,295
2018-06-09T05:53:19.571Z,295
2018-06-09T05:54:29.538Z,295
2018-06-09T05:55:39.426Z,295
2018-06-09T05:56:49.074Z,295
2018-06-09T05:57:58.519Z,295
2018-06-09T05:59:08.227Z,295
2018-06-09T06:00:17.959Z,295
2018-06-09T06:01:27.934Z,295
2018-06-09T06:02:37.899Z,295
2018-06-09T06:03:47.618Z,300
2018-06-09T06:04:57.590Z,300
2018-06-09T06:06:07.603Z,300
2018-06-09T06:07:17.316Z,300
2018-06-09T06:08:26.940Z,300
2018-06-09T06:09:36.923Z,305
2018-06-09T06:10:46.899Z,305
2018-06-09T06:11:56.608Z,305
2018-06-09T06:13:06.589Z,305
2018-06-09T06:14:16.584Z,310
2018-06-09T06:15:26.298Z,310
2018-06-09T06:16:36.258Z,310
2018-06-09T06:17:45.974Z,310
2018-06-09T06:18:56.146Z,310
2018-06-09T06:20:06.159Z,310
2018-06-09T06:21:16.150Z,310
2018-06-09T06:22:25.868Z,315
2018-06-09T06:23:35.600Z,320
2018-06-09T06:24:45.316Z,320
2018-06-09T06:25:55.290Z,320
2018-06-09T06:27:05.279Z,320
2018-06-09T06:28:15.017Z,320
2018-06-09T06:29:24.990Z,320
2018-06-09T06:30:34.962Z,325
2018-06-09T06:31:44.940Z,325
2018-06-09T06:32:54.931Z,325
2018-06-09T06:34:04.647Z,325
2018-06-09T06:35:14.370Z,325
2018-06-09T06:36:24.344Z,330
2018-06-09T06:37:34.315Z,330
2018-06-09T06:38:44.291Z,335
2018-06-09T06:39:53.754Z,335
2018-06-09T06:41:03.716Z,340
2018-06-09T06:42:13.690Z,340
2018-06-09T06:43:23.411Z,345
2018-06-09T06:44:33.378Z,355
2018-06-09T06:45:43.094Z,355
2018-06-09T06:46:53.076Z,355
2018-06-09T06:48:03.049Z,360
2018-06-09T06:49:12.762Z,360
2018-06-09T06:50:22.997Z,360
2018-06-09T06:51:33.017Z,365
2018-06-09T06:52:42.996Z,365
2018-06-09T06:53:52.715Z,365
2018-06-09T06:55:02.435Z,365
2018-06-09T06:56:12.407Z,365
2018-06-09T06:57:22.388Z,360
2018-06-09T06:58:32.382Z,360
2018-06-09T06:59:42.361Z,365
2018-06-09T07:00:52.351Z,360
2018-06-09T07:02:02.464Z,360
2018-06-09T07:03:12.210Z,365
2018-06-09T07:04:22.193Z,365
2018-06-09T07:05:31.904Z,370
2018-06-09T07:06:41.642Z,375
2018-06-09T07:07:51.680Z,370
2018-06-09T07:09:01.420Z,375
2018-06-09T07:10:11.429Z,375
2018-06-09T07:11:21.151Z,380
2018-06-09T07:12:30.856Z,380
2018-06-09T07:13:40.174Z,380
2018-06-09T07:14:50.151Z,380
2018-06-09T07:15:59.615Z,385
2018-06-09T07:17:09.630Z,385
2018-06-09T07:18:19.609Z,385
2018-06-09T07:19:29.592Z,385
2018-06-09T07:20:39.581Z,390
2018-06-09T07:21:49.550Z,390
2018-06-09T07:22:59.541Z,390
2018-06-09T07:24:09.509Z,390
2018-06-09T07:25:19.213Z,395
2018-06-09T07:26:29.191Z,395
2018-06-09T07:27:38.924Z,395
2018-06-09T07:28:48.403Z,395
2018-06-09T07:29:58.380Z,395
2018-06-09T07:31:08.106Z,400
2018-06-09T07:32:18.078Z,400
2018-06-09T07:33:27.787Z,400
2018-06-09T07:34:37.269Z,400
2018-06-09T07:35:47.233Z,405
2018-06-09T07:36:57.208Z,405
2018-06-09T07:38:07.181Z,405
2018-06-09T07:39:16.907Z,405
2018-06-09T07:40:26.363Z,405
2018-06-09T07:41:36.085Z,405
2018-06-09T07:42:46.063Z,405
2018-06-09T07:43:55.768Z,410
2018-06-09T07:45:05.215Z,410
2018-06-09T07:46:15.201Z,410
2018-06-09T07:47:25.187Z,410
2018-06-09T07:48:34.903Z,410
2018-06-09T07:49:44.883Z,410
2018-06-09T07:50:54.600Z,415
2018-06-09T07:52:04.328Z,410
2018-06-09T07:53:14.310Z,410
2018-06-09T07:54:24.307Z,410
2018-06-09T07:55:34.296Z,415
2018-06-09T07:56:44.262Z,415
2018-06-09T07:57:53.996Z,415
2018-06-09T07:59:03.716Z,415
2018-06-09T08:00:13.685Z,415
2018-06-09T08:01:23.409Z,415
2018-06-09T08:02:33.399Z,420
2018-06-09T08:03:43.387Z,420
2018-06-09T08:04:53.357Z,420
2018-06-09T08:06:03.097Z,420
2018-06-09T08:07:13.079Z,420
2018-06-09T08:08:22.795Z,425
2018-06-09T08:09:32.758Z,425
2018-06-09T08:10:42.474Z,425
2018-06-09T08:11:52.205Z,425
2018-06-09T08:13:01.942Z,425
2018-06-09T08:14:12.118Z,430
2018-06-09T08:15:22.116Z,430
2018-06-09T08:16:32.103Z,430
2018-06-09T08:17:42.091Z,430
2018-06-09T08:18:51.809Z,430
2018-06-09T08:20:01.797Z,430
2018-06-09T08:21:11.794Z,430
2018-06-09T08:22:21.251Z,430
2018-06-09T08:23:30.977Z,430
2018-06-09T08:24:40.970Z,435
2018-06-09T08:25:50.948Z,435
2018-06-09T08:27:00.919Z,435
2018-06-09T08:28:10.373Z,435
2018-06-09T08:29:20.016Z,440
2018-06-09T08:30:30.038Z,440
2018-06-09T08:31:39.762Z,440
2018-06-09T08:32:49.758Z,470
2018-06-09T08:33:59.488Z,840
2018-06-09T08:35:09.233Z,1120
2018-06-09T08:36:19.763Z,1260
2018-06-09T08:37:29.208Z,1305
2018-06-09T08:38:39.187Z,1235
2018-06-09T08:39:48.652Z,1245
2018-06-09T08:40:58.646Z,1280
2018-06-09T08:42:08.660Z,1345
2018-06-09T08:43:18.384Z,1270
2018-06-09T08:44:28.113Z,1135
2018-06-09T08:45:37.318Z,1185
2018-06-09T08:46:47.038Z,1285
2018-06-09T08:47:57.041Z,1395
2018-06-09T08:49:06.768Z,1370
2018-06-09T08:50:16.761Z,1435
2018-06-09T08:51:26.743Z,1365
2018-06-09T08:52:36.729Z,1335
2018-06-09T08:53:46.725Z,1485
2018-06-09T08:54:56.446Z,1460
2018-06-09T08:56:06.443Z,1365
2018-06-09T08:57:16.171Z,1555
2018-06-09T08:58:25.927Z,1715
2018-06-09T08:59:35.652Z,1450
2018-06-09T09:00:45.678Z,1545
2018-06-09T09:01:55.396Z,1455
2018-06-09T09:03:05.396Z,1590
2018-06-09T09:04:15.127Z,1625
2018-06-09T09:05:24.861Z,1530
2018-06-09T09:06:34.851Z,1560
2018-06-09T09:07:44.577Z,1595
2018-06-09T09:08:54.577Z,1610
2018-06-09T09:10:04.318Z,1540
2018-06-09T09:11:14.299Z,1605
2018-06-09T09:12:24.044Z,1770
2018-06-09T09:13:34.038Z,1625
2018-06-09T09:14:43.761Z,1590
2018-06-09T09:15:53.735Z,1675
2018-06-09T09:17:03.205Z,1755
2018-06-09T09:18:13.220Z,1690
2018-06-09T09:19:23.221Z,1725
2018-06-09T09:20:32.966Z,1695
2018-06-09T09:21:42.970Z,1735
2018-06-09T09:22:52.947Z,1810
2018-06-09T09:24:02.678Z,1810
2018-06-09T09:25:12.413Z,1860
2018-06-09T09:26:22.427Z,1740
2018-06-09T09:27:32.472Z,1705
2018-06-09T09:28:42.199Z,1975
2018-06-09T09:29:51.954Z,1915
2018-06-09T09:31:01.983Z,1805
2018-06-09T09:32:12.144Z,1825
2018-06-09T09:33:22.122Z,1915
2018-06-09T09:34:31.606Z,2010
2018-06-09T09:35:41.602Z,1990
2018-06-09T09:36:51.334Z,1875
2018-06-09T09:38:01.335Z,1920
2018-06-09T09:39:11.356Z,2010
2018-06-09T09:40:21.087Z,1965
2018-06-09T09:41:31.091Z,1945
2018-06-09T09:42:41.084Z,1970
2018-06-09T09:43:51.103Z,2010
2018-06-09T09:45:01.112Z,2010
2018-06-09T09:46:11.094Z,1950
2018-06-09T09:47:20.865Z,1925
2018-06-09T09:48:30.875Z,2035
2018-06-09T09:49:40.877Z,2115
2018-06-09T09:50:50.851Z,2100
2018-06-09T09:52:00.844Z,2200
2018-06-09T09:53:10.865Z,2405
2018-06-09T09:54:20.604Z,2130
2018-06-09T09:55:30.344Z,2005
2018-06-09T09:56:40.352Z,1955
2018-06-09T09:57:50.347Z,1935
2018-06-09T09:59:00.351Z,2150
2018-06-09T10:00:10.341Z,2110
2018-06-09T10:01:20.327Z,2055
2018-06-09T10:02:30.297Z,2065
2018-06-09T10:03:40.291Z,2075
2018-06-09T10:04:50.599Z,2005
2018-06-09T10:06:00.348Z,2095
2018-06-09T10:07:10.339Z,2285
2018-06-09T10:08:20.095Z,2250
2018-06-09T10:09:30.099Z,2200
2018-06-09T10:10:40.103Z,2155
2018-06-09T10:11:50.099Z,2105
2018-06-09T10:12:59.833Z,2165
2018-06-09T10:14:09.574Z,2260
2018-06-09T10:15:19.322Z,2170
2018-06-09T10:16:29.335Z,2200
2018-06-09T10:17:39.325Z,2150
2018-06-09T10:18:49.323Z,2115
2018-06-09T10:19:59.071Z,2185
2018-06-09T10:21:09.060Z,2295
2018-06-09T10:22:19.056Z,2460
2018-06-09T10:23:29.038Z,2335
2018-06-09T10:24:39.039Z,2165
2018-06-09T10:25:48.773Z,2200
2018-06-09T10:26:58.516Z,2310
2018-06-09T10:28:08.263Z,2290
2018-06-09T10:29:18.045Z,2340
2018-06-09T10:30:27.779Z,2385
2018-06-09T10:31:37.879Z,2415
2018-06-09T10:32:48.032Z,2390
2018-06-09T10:33:58.044Z,2390
2018-06-09T10:35:07.811Z,2390
2018-06-09T10:36:17.808Z,2355
2018-06-09T10:37:27.557Z,2435
2018-06-09T10:38:37.573Z,2465
2018-06-09T10:39:47.578Z,2400
2018-06-09T10:40:57.581Z,2355
2018-06-09T10:42:07.581Z,2365
2018-06-09T10:43:17.573Z,2425
2018-06-09T10:44:27.295Z,2435
2018-06-09T10:45:37.289Z,2455
2018-06-09T10:46:47.312Z,2540
2018-06-09T10:47:57.047Z,2590
2018-06-09T10:49:07.043Z,2605
2018-06-09T10:50:16.520Z,2525
2018-06-09T10:51:26.261Z,2555
2018-06-09T10:52:36.257Z,2660
2018-06-09T10:53:45.980Z,2645
2018-06-09T10:54:55.976Z,2575
2018-06-09T10:56:05.978Z,2585
2018-06-09T10:57:15.721Z,2620
2018-06-09T10:58:25.733Z,2580
2018-06-09T10:59:35.727Z,2605
2018-06-09T11:00:45.457Z,2630
2018-06-09T11:01:55.177Z,2695
2018-06-09T11:03:04.655Z,2725
2018-06-09T11:04:14.375Z,2710
2018-06-09T11:05:24.355Z,2675
2018-06-09T11:06:34.357Z,2635
2018-06-09T11:07:44.351Z,2725
2018-06-09T11:08:54.077Z,2815
2018-06-09T11:10:04.260Z,2780
2018-06-09T11:11:13.752Z,2745
2018-06-09T11:12:23.732Z,2695
2018-06-09T11:13:33.735Z,2620
2018-06-09T11:14:43.204Z,2715
2018-06-09T11:15:53.197Z,2715
2018-06-09T11:17:03.196Z,2670
2018-06-09T11:18:12.712Z,2725
2018-06-09T11:19:22.710Z,2715
2018-06-09T11:20:32.699Z,2685
2018-06-09T11:21:42.693Z,2740
2018-06-09T11:22:52.686Z,2795
2018-06-09T11:24:02.673Z,2700
2018-06-09T11:25:12.668Z,2590
2018-06-09T11:26:22.393Z,2560
2018-06-09T11:27:32.374Z,2705
2018-06-09T11:28:42.099Z,2730
2018-06-09T11:29:52.090Z,2600
2018-06-09T11:31:02.091Z,2765
2018-06-09T11:32:12.085Z,2870
2018-06-09T11:33:22.112Z,2985
2018-06-09T11:34:31.841Z,3055
2018-06-09T11:35:41.323Z,3025
2018-06-09T11:36:51.329Z,2965
2018-06-09T11:38:01.074Z,2865
2018-06-09T11:39:10.813Z,2825
2018-06-09T11:40:20.806Z,2900
2018-06-09T11:41:30.806Z,2940
2018-06-09T11:42:40.790Z,2955
2018-06-09T11:43:50.834Z,2975
2018-06-09T11:45:00.831Z,2930
2018-06-09T11:46:10.815Z,2910
2018-06-09T11:47:20.423Z,2940
2018-06-09T11:48:30.405Z,2965
2018-06-09T11:49:40.149Z,3005
2018-06-09T11:50:50.156Z,2995
2018-06-09T11:52:00.155Z,3025
2018-06-09T11:53:10.171Z,2940
2018-06-09T11:54:19.906Z,2855
2018-06-09T11:55:29.885Z,2915
2018-06-09T11:56:39.607Z,3115
2018-06-09T11:57:49.835Z,3080
2018-06-09T11:58:59.577Z,3000
2018-06-09T12:00:09.595Z,3020
2018-06-09T12:01:19.592Z,3050
2018-06-09T12:02:29.588Z,3095
2018-06-09T12:03:39.583Z,3080
2018-06-09T12:04:49.593Z,2975
2018-06-09T12:05:59.618Z,3015
2018-06-09T12:07:09.613Z,3105
2018-06-09T12:08:19.606Z,3110
2018-06-09T12:09:29.601Z,3070
2018-06-09T12:10:39.600Z,3070
2018-06-09T12:11:49.083Z,3110
2018-06-09T12:12:58.824Z,3110
2018-06-09T12:14:08.567Z,3080
2018-06-09T12:15:18.289Z,3060
2018-06-09T12:16:28.037Z,3190
2018-06-09T12:17:38.032Z,3260
2018-06-09T12:18:48.088Z,3160
2018-06-09T12:19:58.077Z,3005
2018-06-09T12:21:07.548Z,3005
2018-06-09T12:22:17.562Z,3050
2018-06-09T12:23:27.553Z,3020
2018-06-09T12:24:37.285Z,3150
2018-06-09T12:25:47.032Z,3200
2018-06-09T12:26:56.766Z,3135
2018-06-09T12:28:06.518Z,3125
2018-06-09T12:29:16.264Z,3345
2018-06-09T12:30:25.998Z,3480
2018-06-09T12:31:35.993Z,3405
2018-06-09T12:32:46.136Z,3255
2018-06-09T12:33:56.135Z,3190
2018-06-09T12:35:06.175Z,3295
2018-06-09T12:36:15.391Z,3365
2018-06-09T12:37:25.402Z,3350
2018-06-09T12:38:35.408Z,3340
2018-06-09T12:39:45.414Z,3335
2018-06-09T12:40:55.146Z,3165
2018-06-09T12:42:05.138Z,2895
2018-06-09T12:43:15.152Z,2840
2018-06-09T12:44:25.142Z,3000
2018-06-09T12:45:34.890Z,3270
2018-06-09T12:46:44.884Z,3335
2018-06-09T12:47:54.638Z,3095
2018-06-09T12:49:04.373Z,2890
2018-06-09T12:50:14.117Z,1160
2018-06-09T12:51:23.843Z,2765
2018-06-09T12:52:33.839Z,3195
2018-06-09T12:53:43.564Z,3085
2018-06-09T12:54:53.441Z,3095
2018-06-09T12:56:03.229Z,3145
2018-06-09T12:57:13.212Z,3140
2018-06-09T12:58:23.221Z,3130
2018-06-09T12:59:32.945Z,3125
2018-06-09T13:00:42.939Z,3095
2018-06-09T13:01:52.930Z,3140
2018-06-09T13:03:02.908Z,3160
2018-06-09T13:04:12.647Z,3180
2018-06-09T13:05:22.693Z,3230
2018-06-09T13:06:32.680Z,3025
2018-06-09T13:07:42.675Z,1075
2018-06-09T13:08:52.667Z,1140
2018-06-09T13:10:02.409Z,1065
2018-06-09T13:11:12.403Z,1040
2018-06-09T13:12:22.408Z,1070
2018-06-09T13:13:32.148Z,990
2018-06-09T13:14:42.161Z,1000
2018-06-09T13:15:52.168Z,965
2018-06-09T13:17:02.158Z,955
2018-06-09T13:18:12.137Z,1015
2018-06-09T13:19:23.445Z,2955
2018-06-09T13:20:33.449Z,3210
2018-06-09T13:21:43.202Z,3195
2018-06-09T13:22:53.189Z,3170
2018-06-09T13:24:03.206Z,2095
2018-06-09T13:25:13.196Z,2070
2018-06-09T13:26:22.922Z,1060
2018-06-09T13:27:32.646Z,1045
2018-06-09T13:28:42.386Z,1025
2018-06-09T13:29:52.109Z,990
2018-06-09T13:31:02.096Z,1395
2018-06-09T13:32:12.091Z,2375
2018-06-09T13:33:22.068Z,2280
2018-06-09T13:34:32.152Z,3055
2018-06-09T13:35:41.879Z,3075
2018-06-09T13:36:51.854Z,3100
2018-06-09T13:38:01.850Z,3130
2018-06-09T13:39:11.841Z,3140
2018-06-09T13:40:21.814Z,3125
2018-06-09T13:41:31.651Z,3055
2018-06-09T13:42:41.370Z,2995
2018-06-09T13:43:51.111Z,3030
2018-06-09T13:45:01.096Z,3055
2018-06-09T13:46:11.085Z,3095
2018-06-09T13:47:20.829Z,3110
2018-06-09T13:48:30.825Z,3035
2018-06-09T13:49:40.846Z,2905
2018-06-09T13:50:50.837Z,2890
2018-06-09T13:52:00.823Z,2925
2018-06-09T13:53:10.840Z,2945
2018-06-09T13:54:21.023Z,2675
2018-06-09T13:55:30.769Z,1020
2018-06-09T13:56:40.795Z,995
2018-06-09T13:57:50.829Z,1020
2018-06-09T13:59:00.891Z,1125
2018-06-09T14:00:10.627Z,2930
2018-06-09T14:01:20.660Z,3050
2018-06-09T14:02:30.651Z,3160
2018-06-09T14:03:40.654Z,3205
2018-06-09T14:04:50.654Z,3120
2018-06-09T14:06:00.661Z,1725
2018-06-09T14:07:10.657Z,985
2018-06-09T14:08:20.654Z,925
2018-06-09T14:09:30.672Z,895
2018-06-09T14:10:40.408Z,920
2018-06-09T14:11:50.150Z,965
2018-06-09T14:13:00.154Z,2095
2018-06-09T14:14:10.132Z,2875
2018-06-09T14:15:20.124Z,2870
2018-06-09T14:16:30.114Z,2775
2018-06-09T14:17:40.179Z,2785
2018-06-09T14:18:49.921Z,2860
2018-06-09T14:19:59.690Z,2825
2018-06-09T14:21:09.433Z,2765
2018-06-09T14:22:19.163Z,2685
2018-06-09T14:23:29.159Z,1800
2018-06-09T14:24:38.885Z,1660
2018-06-09T14:25:48.617Z,2625
2018-06-09T14:26:59.029Z,2650
2018-06-09T14:28:09.140Z,2790
2018-06-09T14:29:19.152Z,2810
2018-06-09T14:30:29.149Z,2815
2018-06-09T14:31:39.141Z,2845
2018-06-09T14:32:49.002Z,2850
2018-06-09T14:33:59.074Z,2800
2018-06-09T14:35:09.102Z,2775
2018-06-09T14:36:19.090Z,2735
2018-06-09T14:37:28.818Z,2650
2018-06-09T14:38:38.808Z,2800
2018-06-09T14:39:48.804Z,2785
2018-06-09T14:40:58.794Z,2720
2018-06-09T14:42:08.814Z,2635
2018-06-09T14:43:18.824Z,2625
2018-06-09T14:44:28.568Z,2585
2018-06-09T14:45:38.311Z,2590
2018-06-09T14:46:48.060Z,2605
2018-06-09T14:47:58.048Z,2655
2018-06-09T14:49:07.804Z,2760
2018-06-09T14:50:17.542Z,2755
2018-06-09T14:51:27.523Z,2660
2018-06-09T14:52:37.510Z,2615
2018-06-09T14:53:47.350Z,2565
2018-06-09T14:54:57.346Z,2595
2018-06-09T14:56:07.354Z,2625
2018-06-09T14:57:17.361Z,2610
2018-06-09T14:58:26.846Z,2635
2018-06-09T14:59:36.842Z,2595
2018-06-09T15:00:46.901Z,2575
2018-06-09T15:01:56.895Z,2560
2018-06-09T15:03:06.629Z,2430
2018-06-09T15:04:16.644Z,2415
2018-06-09T15:05:26.660Z,2190
2018-06-09T15:06:36.690Z,1250
2018-06-09T15:07:46.426Z,1060
2018-06-09T15:08:56.421Z,925
2018-06-09T15:10:05.889Z,1170
2018-06-09T15:11:16.319Z,1500
2018-06-09T15:12:26.365Z,2525
2018-06-09T15:13:36.242Z,2460
2018-06-09T15:14:46.259Z,2380
2018-06-09T15:15:56.074Z,2420
2018-06-09T15:17:06.068Z,2025
2018-06-09T15:18:15.812Z,945
2018-06-09T15:19:25.580Z,910
2018-06-09T15:20:35.594Z,895
2018-06-09T15:21:45.591Z,895
2018-06-09T15:22:55.722Z,1800
2018-06-09T15:24:05.864Z,1210
2018-06-09T15:25:15.860Z,860
2018-06-09T15:26:25.592Z,850
2018-06-09T15:27:35.621Z,955
2018-06-09T15:28:45.615Z,2195
2018-06-09T15:29:55.610Z,1555
2018-06-09T15:31:05.609Z,815
2018-06-09T15:32:15.626Z,795
2018-06-09T15:33:25.619Z,1140
2018-06-09T15:34:35.622Z,1615
2018-06-09T15:35:45.615Z,915
2018-06-09T15:36:55.604Z,1630
2018-06-09T15:38:05.336Z,1790
2018-06-09T15:39:15.072Z,1790
2018-06-09T15:40:25.071Z,1810
2018-06-09T15:41:34.814Z,1830
2018-06-09T15:42:44.839Z,1880
2018-06-09T15:43:54.831Z,2030
2018-06-09T15:45:04.327Z,2015
2018-06-09T15:46:14.093Z,2045
2018-06-09T15:47:23.865Z,1930
2018-06-09T15:48:33.868Z,1840
2018-06-09T15:49:43.599Z,1815
2018-06-09T15:50:53.584Z,1825
2018-06-09T15:52:03.589Z,1755
2018-06-09T15:53:13.584Z,1830
2018-06-09T15:54:23.337Z,1820
2018-06-09T15:55:33.343Z,1870
2018-06-09T15:56:43.328Z,1950
2018-06-09T15:57:53.321Z,1985
2018-06-09T15:59:02.809Z,2010
2018-06-09T16:00:12.788Z,2000